Time;durP1;ratioP1;P1;durP2;ratioP2;P2;SDS_P1;SDS_P2;PMS_P1;PMS_P2;Temp;Humidity;BMP_temperature;BMP_pressure;BME280_temperature;BME280_humidity;BME280_pressure;Samples;Min_cycle;Max_cycle;Signal;HPM_P1;HPM_P2
2022/08/22 00:00:11;;;;;;;3.22;1.35;;;;;;;22.93;92.04;99821.41;5038087;28;20030;-87
2022/08/22 00:02:52;;;;;;;6.05;1.58;;;;;;;22.84;92.65;99817.56;5021686;28;20022;-90
2022/08/22 00:05:37;;;;;;;4.05;1.60;;;;;;;22.70;93.70;99809.09;5024956;28;20060;-87
2022/08/22 00:08:29;;;;;;;2.42;1.58;;;;;;;22.69;94.91;99807.47;5016602;28;20080;-87
2022/08/22 00:11:04;;;;;;;4.60;1.77;;;;;;;22.59;95.60;99805.47;4996493;28;20038;-83
2022/08/22 00:13:52;;;;;;;6.28;1.92;;;;;;;22.64;96.10;99807.38;5012375;28;20178;-87
2022/08/22 00:16:37;;;;;;;9.68;1.77;;;;;;;22.59;96.45;99799.25;4996717;28;20472;-86
2022/08/22 00:19:50;;;;;;;3.10;1.27;;;;;;;22.53;96.92;99802.97;5014775;28;20118;-85
2022/08/22 00:22:25;;;;;;;4.00;1.55;;;;;;;22.47;98.24;99806.72;4995886;28;20056;-88
2022/08/22 00:24:59;;;;;;;4.38;1.70;;;;;;;22.44;98.35;99797.22;4996774;28;20144;-87
2022/08/22 00:27:36;;;;;;;2.97;1.42;;;;;;;22.31;99.92;99802.22;4980405;28;20076;-87
2022/08/22 00:30:22;;;;;;;3.72;1.73;;;;;;;22.22;100.00;99809.16;5014569;28;20386;-86
2022/08/22 00:33:17;;;;;;;3.97;1.77;;;;;;;22.11;100.00;99814.47;5013907;28;20030;-88
2022/08/22 00:35:57;;;;;;;6.40;1.77;;;;;;;22.17;100.00;99806.44;5014134;28;20044;-86
2022/08/22 00:38:32;;;;;;;5.57;1.80;;;;;;;22.11;100.00;99819.03;4997890;28;20041;-83
2022/08/22 00:41:52;;;;;;;3.78;1.52;;;;;;;22.06;100.00;99825.22;5000435;28;20041;-86
2022/08/22 00:44:20;;;;;;;2.33;1.42;;;;;;;22.12;100.00;99826.06;4935417;29;20071;-86
2022/08/22 00:47:18;;;;;;;3.13;1.30;;;;;;;22.24;100.00;99813.22;4934637;29;20051;-88
2022/08/22 00:50:15;;;;;;;5.70;1.85;;;;;;;22.42;99.16;99815.56;4936374;29;20046;-87
2022/08/22 00:53:06;;;;;;;3.92;1.52;;;;;;;22.52;97.55;99821.06;4938053;29;20058;-87
2022/08/22 00:55:57;;;;;;;3.75;1.42;;;;;;;22.62;96.15;99814.94;4938305;29;20043;-88
2022/08/22 00:58:44;;;;;;;7.03;1.90;;;;;;;22.58;98.43;99814.63;4969424;28;20565;-88
2022/08/22 01:01:12;;;;;;;2.58;1.27;;;;;;;22.51;99.38;99819.44;5017432;28;20053;-86
2022/08/22 01:03:57;;;;;;;3.83;1.55;;;;;;;22.50;99.49;99811.59;5017138;28;20038;-87
2022/08/22 01:06:22;;;;;;;5.43;2.30;;;;;;;22.39;100.00;99815.28;4999293;28;20042;-85
2022/08/22 01:09:06;;;;;;;5.47;1.80;;;;;;;22.32;100.00;99814.66;5017045;28;20044;-85
2022/08/22 01:11:56;;;;;;;4.68;2.47;;;;;;;22.32;100.00;99811.97;5016873;28;20033;-85
2022/08/22 01:14:40;;;;;;;6.93;2.00;;;;;;;22.21;100.00;99802.13;5017161;28;20121;-87
2022/08/22 01:17:25;;;;;;;4.22;2.08;;;;;;;21.96;100.00;99817.00;5017383;28;20044;-87
2022/08/22 01:20:04;;;;;;;5.70;2.25;;;;;;;21.89;100.00;99826.31;5005089;28;20024;-87
2022/08/22 01:22:54;;;;;;;3.78;2.45;;;;;;;22.05;100.00;99820.88;5013470;28;20045;-85
2022/08/22 01:25:49;;;;;;;8.13;2.30;;;;;;;21.84;100.00;99792.00;5017781;28;20026;-86
2022/08/22 01:28:39;;;;;;;3.30;1.90;;;;;;;21.82;100.00;99820.31;4965629;28;20050;-85
2022/08/22 01:31:22;;;;;;;2.85;1.92;;;;;;;21.85;100.00;99820.63;4983556;28;20100;-88
2022/08/22 01:34:10;;;;;;;10.00;2.17;;;;;;;21.82;100.00;99813.03;5017108;28;20036;-87
2022/08/22 01:36:57;;;;;;;3.70;1.80;;;;;;;21.67;100.00;99809.34;5016470;28;20034;-86
2022/08/22 01:39:51;;;;;;;3.75;2.10;;;;;;;21.58;100.00;99809.78;5016802;28;20068;-86
2022/08/22 01:42:45;;;;;;;2.78;2.00;;;;;;;21.51;100.00;99817.25;5015700;28;20479;-85
2022/08/22 01:45:36;;;;;;;6.45;2.10;;;;;;;21.53;100.00;99809.72;5016731;28;20038;-85
2022/08/22 01:48:20;;;;;;;3.33;1.92;;;;;;;21.60;100.00;99806.84;5016702;28;20083;-86
2022/08/22 01:50:55;;;;;;;9.07;2.30;;;;;;;21.61;100.00;99813.84;4999244;28;20535;-87
2022/08/22 01:53:23;;;;;;;6.22;2.38;;;;;;;21.59;100.00;99810.59;5016413;28;20034;-87
2022/08/22 01:56:08;;;;;;;4.53;2.22;;;;;;;21.38;100.00;99819.47;5016860;28;20171;-86
2022/08/22 01:58:37;;;;;;;8.25;2.17;;;;;;;21.43;100.00;99812.28;5016763;28;20111;-85
2022/08/22 02:01:30;;;;;;;4.97;1.90;;;;;;;21.60;100.00;99823.03;5017072;28;20483;-86
2022/08/22 02:04:33;;;;;;;5.15;2.20;;;;;;;21.58;100.00;99815.16;5033849;28;20044;-87
2022/08/22 02:07:12;;;;;;;2.80;2.25;;;;;;;21.46;100.00;99811.78;5019079;28;20041;-88
2022/08/22 02:10:02;;;;;;;6.25;2.40;;;;;;;21.45;100.00;99809.34;4999278;28;20058;-88
2022/08/22 02:12:36;;;;;;;4.30;2.40;;;;;;;21.44;100.00;99822.00;5016241;28;20126;-87
2022/08/22 02:15:07;;;;;;;4.10;2.17;;;;;;;21.48;100.00;99816.91;5016068;28;20481;-87
2022/08/22 02:17:46;;;;;;;8.48;2.22;;;;;;;21.53;100.00;99825.09;5016031;28;20037;-87
2022/08/22 02:20:23;;;;;;;5.13;2.47;;;;;;;21.43;100.00;99823.09;5016226;28;20476;-85
2022/08/22 02:23:08;;;;;;;3.38;2.20;;;;;;;21.37;100.00;99816.00;5015940;28;20037;-86
2022/08/22 02:25:51;;;;;;;2.60;1.92;;;;;;;21.26;100.00;99818.78;4998255;28;20097;-86
2022/08/22 02:28:52;;;;;;;3.70;1.95;;;;;;;21.07;100.00;99824.44;5015763;28;20034;-87
2022/08/22 02:31:33;;;;;;;3.75;2.10;;;;;;;20.95;100.00;99817.50;4998289;28;20403;-87
2022/08/22 02:34:14;;;;;;;4.60;2.17;;;;;;;20.98;100.00;99820.50;4982177;28;20125;-86
2022/08/22 02:36:52;;;;;;;4.82;2.60;;;;;;;21.02;100.00;99823.53;4998789;28;20041;-87
2022/08/22 02:39:36;;;;;;;4.38;2.20;;;;;;;21.00;100.00;99818.41;5035604;28;20026;-86
2022/08/22 02:42:22;;;;;;;4.75;2.53;;;;;;;20.96;100.00;99822.66;5016135;28;20398;-86
2022/08/22 02:44:53;;;;;;;6.05;2.25;;;;;;;20.97;100.00;99818.91;5015703;28;20032;-86
2022/08/22 02:47:24;;;;;;;7.63;2.60;;;;;;;20.96;100.00;99819.94;5015661;28;20148;-86
2022/08/22 02:50:22;;;;;;;8.15;2.65;;;;;;;20.73;100.00;99822.81;5015497;28;20082;-84
2022/08/22 02:53:10;;;;;;;5.20;2.40;;;;;;;20.51;100.00;99819.25;4945971;28;20402;-84
2022/08/22 02:56:08;;;;;;;7.00;2.63;;;;;;;20.57;100.00;99818.25;5015713;28;20403;-85
2022/08/22 02:59:09;;;;;;;6.97;2.80;;;;;;;20.65;100.00;99811.66;5015660;28;20041;-87
2022/08/22 03:01:39;;;;;;;5.68;2.42;;;;;;;20.61;100.00;99819.41;4982430;28;20057;-85
2022/08/22 03:04:22;;;;;;;7.05;2.42;;;;;;;20.66;100.00;99822.16;5015228;28;20034;-86
2022/08/22 03:07:19;;;;;;;4.97;2.50;;;;;;;20.71;100.00;99811.50;5014913;28;20137;-84
2022/08/22 03:09:57;;;;;;;8.68;1.98;;;;;;;20.61;100.00;99809.44;5015179;28;20038;-88
2022/08/22 03:12:32;;;;;;;6.05;2.33;;;;;;;20.69;100.00;99807.38;5015203;28;20049;-87
2022/08/22 03:15:22;;;;;;;8.13;2.15;;;;;;;20.81;100.00;99814.34;5014595;28;20034;-86
2022/08/22 03:18:20;;;;;;;2.92;2.22;;;;;;;20.66;100.00;99822.16;5014982;28;20029;-87
2022/08/22 03:20:57;;;;;;;7.82;2.40;;;;;;;20.68;100.00;99814.69;5014699;28;20069;-87
2022/08/22 03:23:39;;;;;;;3.95;2.35;;;;;;;20.76;100.00;99803.47;5015018;28;20038;-88
2022/08/22 03:26:16;;;;;;;6.97;2.78;;;;;;;20.68;100.00;99797.69;5014893;28;20030;-87
2022/08/22 03:29:03;;;;;;;5.05;2.10;;;;;;;20.69;100.00;99804.69;5015328;28;20038;-87
2022/08/22 03:31:30;;;;;;;6.03;2.53;;;;;;;20.75;100.00;99796.44;5020134;28;20033;-81
2022/08/22 03:34:14;;;;;;;6.07;2.53;;;;;;;20.62;100.00;99797.59;5020049;28;20080;-84
2022/08/22 03:36:47;;;;;;;4.03;2.30;;;;;;;20.62;100.00;99800.28;5014534;28;20030;-87
2022/08/22 03:39:23;;;;;;;2.78;2.10;;;;;;;20.66;100.00;99794.41;5014659;28;20029;-88
2022/08/22 03:42:09;;;;;;;8.20;2.67;;;;;;;20.74;100.00;99794.03;5014350;28;20073;-87
2022/08/22 03:45:05;;;;;;;4.63;2.28;;;;;;;20.66;100.00;99802.50;5014949;28;20037;-89
2022/08/22 03:48:01;;;;;;;3.53;2.45;;;;;;;20.63;100.00;99811.88;5014382;28;20038;-86
2022/08/22 03:50:45;;;;;;;8.13;2.03;;;;;;;20.57;100.00;99808.31;5015170;28;20487;-87
2022/08/22 03:53:44;;;;;;;6.93;2.33;;;;;;;20.53;100.00;99812.53;4998371;28;20430;-84
2022/08/22 03:56:13;;;;;;;3.50;2.28;;;;;;;20.67;100.00;99801.44;5023602;28;20056;-89
2022/08/22 03:59:25;;;;;;;5.07;2.00;;;;;;;20.49;100.00;99806.00;5010197;28;20056;-84
2022/08/22 04:02:16;;;;;;;2.97;1.80;;;;;;;20.61;100.00;99803.25;4917589;29;20050;-86
2022/08/22 04:04:56;;;;;;;5.50;2.17;;;;;;;20.53;100.00;99809.03;4927998;29;20106;-87
2022/08/22 04:07:23;;;;;;;2.15;1.95;;;;;;;20.53;100.00;99809.03;4927902;29;20040;-86
2022/08/22 04:10:11;;;;;;;6.13;2.50;;;;;;;20.45;100.00;99809.44;4940420;29;20052;-87
2022/08/22 04:12:57;;;;;;;5.82;2.20;;;;;;;20.29;100.00;99815.59;4940320;29;20032;-87
2022/08/22 04:15:38;;;;;;;7.35;2.17;;;;;;;20.21;100.00;99813.28;4929293;28;20052;-85
2022/08/22 04:18:36;;;;;;;6.05;1.90;;;;;;;20.29;100.00;99818.28;5023359;28;20030;-85
2022/08/22 04:21:20;;;;;;;6.88;2.65;;;;;;;20.34;100.00;99815.69;4948930;29;20126;-84
2022/08/22 04:24:07;;;;;;;5.53;2.67;;;;;;;20.40;100.00;99822.81;4946917;29;20571;-83
2022/08/22 04:27:13;;;;;;;12.07;2.65;;;;;;;20.19;100.00;99815.38;4950816;29;20040;-84
2022/08/22 04:29:57;;;;;;;7.40;2.30;;;;;;;20.11;100.00;99811.22;4937414;28;20406;-87
2022/08/22 04:32:42;;;;;;;7.10;2.20;;;;;;;20.06;100.00;99805.75;5018936;28;20042;-85
2022/08/22 04:35:24;;;;;;;5.80;2.47;;;;;;;19.93;100.00;99812.22;5019547;28;20037;-87
2022/08/22 04:37:58;;;;;;;6.97;2.28;;;;;;;19.88;100.00;99806.78;5019166;28;20042;-87
2022/08/22 04:40:47;;;;;;;10.10;2.95;;;;;;;19.75;100.00;99803.53;5034355;28;20119;-85
2022/08/22 04:43:26;;;;;;;4.05;2.40;;;;;;;19.73;100.00;99806.47;5021145;28;20038;-86
2022/08/22 04:46:02;;;;;;;7.75;2.88;;;;;;;19.79;100.00;99813.56;5020517;28;20064;-87
2022/08/22 04:48:37;;;;;;;5.82;2.65;;;;;;;19.68;100.00;99817.13;4985842;28;20478;-89
2022/08/22 04:51:17;;;;;;;5.72;3.53;;;;;;;19.70;100.00;99812.31;4986304;28;20042;-85
2022/08/22 04:54:17;;;;;;;8.35;3.00;;;;;;;19.71;100.00;99813.13;5020776;28;20037;-86
2022/08/22 04:57:01;;;;;;;6.72;3.00;;;;;;;19.75;100.00;99817.00;5018986;28;20088;-86
2022/08/22 04:59:29;;;;;;;8.25;2.53;;;;;;;19.91;100.00;99822.44;5017968;28;20042;-88
2022/08/22 05:01:58;;;;;;;5.70;2.70;;;;;;;20.15;100.00;99820.44;5017467;28;20043;-86
2022/08/22 05:04:49;;;;;;;4.60;2.72;;;;;;;20.31;100.00;99825.09;5018026;28;20379;-88
2022/08/22 05:07:19;;;;;;;12.38;3.47;;;;;;;20.40;100.00;99831.69;5009124;28;20045;-87
2022/08/22 05:09:50;;;;;;;7.53;2.83;;;;;;;20.62;100.00;99831.78;5019657;28;20117;-88
2022/08/22 05:12:29;;;;;;;18.27;3.38;;;;;;;20.81;100.00;99827.81;5026945;28;20056;-89
2022/08/22 05:15:00;;;;;;;3.75;2.72;;;;;;;20.90;100.00;99834.41;5032935;28;20045;-87
2022/08/22 05:17:29;;;;;;;8.80;2.80;;;;;;;20.79;100.00;99834.47;5026050;28;20034;-88
2022/08/22 05:20:01;;;;;;;3.58;2.55;;;;;;;20.56;100.00;99832.75;5017594;28;20045;-91
2022/08/22 05:22:32;;;;;;;8.20;2.80;;;;;;;20.54;100.00;99832.22;5017500;28;20395;-89
2022/08/22 05:25:09;;;;;;;4.67;2.80;;;;;;;20.53;100.00;99835.94;5001605;28;20084;-90
2022/08/22 05:27:42;;;;;;;9.70;2.85;;;;;;;20.57;100.00;99839.78;5000694;28;20288;-89
2022/08/22 05:30:15;;;;;;;5.50;2.72;;;;;;;20.91;100.00;99840.63;5019949;28;20033;-90
2022/08/22 05:33:02;;;;;;;4.07;2.67;;;;;;;21.19;100.00;99847.78;5001514;28;20383;-88
2022/08/22 05:35:44;;;;;;;6.13;3.00;;;;;;;21.64;100.00;99845.75;5017536;28;20320;-90
2022/08/22 05:38:16;;;;;;;6.75;3.03;;;;;;;22.01;100.00;99852.13;5019828;28;20046;-86
2022/08/22 05:40:48;;;;;;;3.72;2.63;;;;;;;22.21;100.00;99853.41;5016606;28;20030;-88
2022/08/22 05:43:19;;;;;;;8.10;2.97;;;;;;;22.45;100.00;99847.47;5017487;28;20080;-88
2022/08/22 05:45:46;;;;;;;10.23;2.63;;;;;;;22.68;100.00;99857.16;4999819;28;20038;-89
2022/08/22 05:48:25;;;;;;;12.30;2.85;;;;;;;23.48;100.00;99869.66;5016919;28;20041;-86
2022/08/22 05:50:55;;;;;;;7.60;3.10;;;;;;;23.91;100.00;99860.38;5016599;28;20040;-86
2022/08/22 05:53:47;;;;;;;4.25;2.60;;;;;;;23.88;100.00;99861.72;4998990;28;20092;-88
2022/08/22 05:56:42;;;;;;;6.90;2.38;;;;;;;25.35;90.16;99859.19;5016951;28;20117;-92
2022/08/22 05:59:29;;;;;;;8.73;2.53;;;;;;;26.22;83.68;99863.25;5013941;28;20048;-88
2022/08/22 06:02:30;;;;;;;5.25;2.70;;;;;;;25.39;85.80;99871.91;5015797;28;20049;-88
2022/08/22 06:05:00;;;;;;;6.57;3.05;;;;;;;24.66;91.10;99865.16;5015621;28;20045;-90
2022/08/22 06:07:30;;;;;;;6.78;3.58;;;;;;;24.66;92.59;99878.72;5016581;28;20038;-88
2022/08/22 06:09:58;;;;;;;6.95;3.65;;;;;;;24.73;91.13;99873.84;4998697;28;20034;-87
2022/08/22 06:12:45;;;;;;;8.30;3.83;;;;;;;25.48;87.05;99875.72;5028619;28;20045;-85
2022/08/22 06:15:20;;;;;;;7.30;3.58;;;;;;;25.89;85.32;99879.09;5017050;28;20030;-89
2022/08/22 06:18:06;;;;;;;11.27;3.83;;;;;;;26.02;81.39;99880.41;5016139;28;20038;-89
2022/08/22 06:21:01;;;;;;;7.90;3.63;;;;;;;25.68;85.55;99881.13;5020038;28;20058;-83
2022/08/22 06:23:32;;;;;;;10.93;4.20;;;;;;;25.87;83.98;99884.00;5002984;28;20076;-88
2022/08/22 06:26:00;;;;;;;6.95;3.70;;;;;;;25.67;84.68;99878.66;4998858;28;20036;-86
2022/08/22 06:28:32;;;;;;;10.75;3.90;;;;;;;25.72;84.76;99886.78;5016197;28;20426;-87
2022/08/22 06:31:02;;;;;;;7.50;4.07;;;;;;;25.85;83.71;99880.78;5018649;28;20022;-86
2022/08/22 06:33:33;;;;;;;10.10;4.05;;;;;;;26.00;81.17;99883.41;5030526;28;20038;-86
2022/08/22 07:04:19;;;;;;;8.82;4.13;;;;;;;27.05;75.03;99886.56;4787959;23;20106;-88
2022/08/22 07:29:34;;;;;;;12.07;4.75;;;;;;;28.07;70.52;99895.28;3631189;23;20026;-86
2022/08/22 07:33:18;;;;;;;12.90;4.50;;;;;;;28.20;69.29;99900.06;5011514;28;20027;-90
2022/08/22 07:36:38;;;;;;;6.68;4.32;;;;;;;29.38;63.22;99903.41;5015176;23;20061;-87
2022/08/22 07:39:56;;;;;;;7.30;4.65;;;;;;;28.91;64.62;99907.19;4948115;28;20102;-91
2022/08/22 07:42:44;;;;;;;5.78;4.10;;;;;;;29.08;65.54;99910.19;4964776;28;20054;-90
2022/08/22 07:59:39;;;;;;;7.90;3.50;;;;;;;29.64;59.50;99917.38;5515441;23;20043;-86
2022/08/22 08:10:18;;;;;;;9.52;4.68;;;;;;;30.91;54.21;99920.97;5004737;28;20038;-89
2022/08/22 08:13:02;;;;;;;8.73;4.30;;;;;;;30.60;55.65;99920.88;4989255;28;20592;-87
2022/08/22 08:15:33;;;;;;;8.48;4.43;;;;;;;31.36;53.03;99924.50;4990320;28;20035;-89
2022/08/22 08:18:04;;;;;;;10.25;4.18;;;;;;;30.84;54.39;99935.09;5010100;28;20029;-90
2022/08/22 08:20:33;;;;;;;6.77;4.10;;;;;;;30.65;54.64;99937.19;5014298;28;20075;-90
2022/08/22 08:23:08;;;;;;;16.38;4.28;;;;;;;30.53;54.74;99940.44;4982037;28;20035;-84
2022/08/22 08:26:05;;;;;;;7.68;4.47;;;;;;;30.87;55.08;99939.13;4982623;28;20050;-89
2022/08/22 08:28:37;;;;;;;8.32;4.80;;;;;;;30.92;54.60;99936.28;4995819;28;20038;-84
2022/08/22 08:31:36;;;;;;;8.85;4.07;;;;;;;31.44;53.89;99942.91;4996970;28;20034;-86
2022/08/22 08:34:18;;;;;;;10.18;4.13;;;;;;;31.17;54.07;99944.69;5003315;28;20042;-86
2022/08/22 08:37:01;;;;;;;6.70;3.63;;;;;;;31.50;53.23;99942.50;4979544;28;20042;-85
2022/08/22 08:43:50;;;;;;;10.18;6.03;;;;;;;30.54;57.29;99941.25;5012778;28;20022;-89
2022/08/22 09:07:22;;;;;;;13.43;5.70;;;;;;;31.52;53.79;99939.47;5097573;22;19917;-86
2022/08/22 11:16:12;;;;;;;4.15;1.10;;;;;;;35.52;38.92;99839.75;3683415;23;20055;-83
2022/08/22 11:25:40;;;;;;;16.30;5.60;;;;;;;35.39;35.38;99832.63;5337450;23;20037;-84
2022/08/22 11:29:06;;;;;;;5.78;1.33;;;;;;;35.91;34.07;99829.97;4942155;28;20043;-83
2022/08/22 11:32:10;;;;;;;5.47;1.50;;;;;;;35.38;33.94;99825.50;4983006;28;20026;-86
2022/08/22 12:24:33;;;;;;;2.55;1.13;;;;;;;31.29;42.52;99787.25;4207961;23;20051;-81
2022/08/22 12:27:13;;;;;;;11.60;1.25;;;;;;;31.09;42.30;99783.13;4987021;28;20062;-79
2022/08/22 12:30:15;;;;;;;3.35;0.90;;;;;;;31.26;41.94;99769.50;4993201;28;20045;-86
2022/08/22 12:33:15;;;;;;;2.22;0.63;;;;;;;31.35;41.66;99769.53;5017117;28;20056;-84
2022/08/22 12:35:40;;;;;;;8.45;1.13;;;;;;;31.37;42.98;99767.28;5014524;28;20034;-84
2022/08/22 12:38:27;;;;;;;3.10;0.90;;;;;;;31.49;42.19;99775.66;4985549;28;20117;-86
2022/08/22 12:41:22;;;;;;;6.80;0.93;;;;;;;31.08;42.35;99776.03;4978970;28;20058;-82
2022/08/22 12:44:27;;;;;;;3.03;0.77;;;;;;;30.97;42.48;99770.03;4995205;28;20030;-86
2022/08/22 12:47:21;;;;;;;5.63;1.10;;;;;;;31.00;41.75;99761.19;4967958;28;20046;-83
2022/08/22 12:50:02;;;;;;;4.47;1.00;;;;;;;31.10;41.34;99760.91;4998131;28;20033;-84
2022/08/22 12:52:33;;;;;;;3.42;0.88;;;;;;;31.14;40.33;99761.88;4979972;28;20047;-83
2022/08/22 12:55:10;;;;;;;2.28;0.70;;;;;;;30.88;41.32;99760.13;4998388;28;20042;-82
2022/08/22 12:57:54;;;;;;;1.33;0.70;;;;;;;31.02;41.26;99753.47;4993456;28;20057;-83
2022/08/22 13:00:39;;;;;;;5.80;1.25;;;;;;;30.75;42.48;99753.63;4999139;28;20507;-83
2022/08/22 13:03:12;;;;;;;5.70;1.48;;;;;;;31.00;42.55;99752.16;4997759;28;20038;-86
2022/08/22 13:05:46;;;;;;;2.67;1.98;;;;;;;30.92;41.76;99756.47;4980079;28;20054;-85
2022/08/22 13:08:21;;;;;;;6.57;1.13;;;;;;;30.88;42.77;99750.00;5001143;28;20049;-86
2022/08/22 13:10:55;;;;;;;2.65;0.85;;;;;;;31.13;41.92;99749.31;5000383;28;20042;-85
2022/08/22 13:13:33;;;;;;;1.33;0.80;;;;;;;31.03;42.29;99749.59;5000410;28;20042;-84
2022/08/22 13:16:04;;;;;;;5.30;1.10;;;;;;;31.06;42.86;99748.97;4983575;28;20044;-86
2022/08/22 13:18:38;;;;;;;9.00;3.38;;;;;;;31.07;41.44;99747.03;5000701;28;20030;-85
2022/08/22 13:21:08;;;;;;;6.15;1.80;;;;;;;31.03;40.82;99735.91;4984177;28;20065;-89
2022/08/22 13:23:43;;;;;;;2.88;1.00;;;;;;;31.01;41.53;99743.63;4985254;28;20042;-85
2022/08/22 13:26:30;;;;;;;7.47;1.40;;;;;;;31.18;40.32;99737.44;4999388;28;20060;-83
2022/08/22 13:29:15;;;;;;;4.63;1.55;;;;;;;31.17;40.53;99736.63;4999991;28;20026;-83
2022/08/22 13:31:43;;;;;;;2.45;1.00;;;;;;;31.21;39.99;99740.34;4982582;28;20504;-85
2022/08/22 13:34:28;;;;;;;4.93;0.93;;;;;;;30.92;41.32;99740.03;4999372;28;20368;-86
2022/08/22 13:36:58;;;;;;;1.70;0.75;;;;;;;31.02;41.42;99739.78;5000032;28;20041;-85
2022/08/22 13:39:37;;;;;;;4.50;1.10;;;;;;;31.08;40.90;99727.56;4981812;28;20038;-84
2022/08/22 13:42:05;;;;;;;6.45;1.13;;;;;;;31.07;41.31;99728.69;5000048;28;20043;-87
2022/08/22 13:44:37;;;;;;;1.80;1.00;;;;;;;30.95;41.03;99724.91;4967216;28;20038;-85
2022/08/22 13:47:08;;;;;;;8.52;1.50;;;;;;;31.01;42.14;99726.41;4986482;28;20031;-83
2022/08/22 13:50:11;;;;;;;2.28;0.80;;;;;;;31.37;40.74;99724.25;4992449;28;20038;-88
2022/08/22 13:52:41;;;;;;;2.05;1.10;;;;;;;31.22;40.46;99717.28;4989797;28;20042;-86
2022/08/22 13:55:44;;;;;;;3.45;0.90;;;;;;;31.18;39.29;99726.47;4994087;28;20468;-89
2022/08/22 13:58:29;;;;;;;1.08;0.73;;;;;;;31.00;39.90;99714.66;4976986;28;20431;-85
2022/08/22 14:01:01;;;;;;;4.07;1.75;;;;;;;31.03;40.45;99714.00;4993962;28;20042;-84
2022/08/22 14:03:45;;;;;;;;;;;;;;;30.78;40.02;99722.91;4977234;28;20392;-82
2022/08/22 14:06:40;;;;;;;1.90;0.88;;;;;;;30.90;40.07;99722.28;4979260;28;19918;-82
2022/08/22 14:09:17;;;;;;;5.07;0.80;;;;;;;30.74;40.71;99721.91;4980422;28;20051;-83
2022/08/22 14:11:52;;;;;;;2.60;0.80;;;;;;;30.77;39.56;99715.81;4990353;28;20035;-82
2022/08/22 14:14:31;;;;;;;2.03;0.90;;;;;;;30.90;38.81;99709.44;4966333;28;20031;-83
2022/08/22 14:16:58;;;;;;;2.08;0.80;;;;;;;30.76;39.21;99708.72;4978402;28;20050;-81
2022/08/22 14:19:35;;;;;;;3.85;0.95;;;;;;;30.88;38.88;99711.69;4978358;28;20034;-82
2022/08/22 14:22:20;;;;;;;1.75;0.90;;;;;;;30.64;38.92;99711.22;4978395;28;20054;-80
2022/08/22 14:25:00;;;;;;;2.08;0.85;;;;;;;30.86;39.59;99702.97;4959528;28;20039;-82
2022/08/22 14:27:56;;;;;;;3.72;0.98;;;;;;;30.86;39.58;99696.72;4981047;28;20026;-82
2022/08/22 14:30:27;;;;;;;2.47;0.68;;;;;;;30.82;40.33;99691.06;5014805;28;20041;-83
2022/08/22 14:32:55;;;;;;;2.83;1.10;;;;;;;30.69;40.83;99700.16;5012472;28;20061;-82
2022/08/22 14:35:36;;;;;;;1.65;0.90;;;;;;;30.55;40.86;99702.19;4998863;28;20042;-83
2022/08/22 14:38:25;;;;;;;4.15;1.05;;;;;;;30.46;40.38;99699.38;4996704;28;20069;-80
2022/08/22 14:41:25;;;;;;;1.70;0.77;;;;;;;30.57;40.79;99694.47;4991288;28;20035;-80
2022/08/22 14:43:56;;;;;;;2.95;0.80;;;;;;;30.52;40.73;99702.81;4993199;28;20043;-82
2022/08/22 14:46:32;;;;;;;1.67;0.88;;;;;;;30.42;40.92;99695.69;4995147;28;20094;-81
2022/08/22 14:49:25;;;;;;;3.15;0.95;;;;;;;30.17;41.84;99699.81;4996123;28;20041;-81
2022/08/22 14:52:24;;;;;;;7.57;0.90;;;;;;;30.26;41.28;99706.16;4994456;28;20049;-83
2022/08/22 14:55:07;;;;;;;3.65;1.00;;;;;;;30.41;41.62;99690.50;4946609;28;20050;-81
2022/08/22 14:57:34;;;;;;;4.15;1.23;;;;;;;30.50;42.03;99685.91;4978239;28;20038;-82
2022/08/22 15:00:08;;;;;;;9.50;1.20;;;;;;;30.31;42.60;99690.75;4960633;28;20031;-83
2022/08/22 15:02:34;;;;;;;2.63;0.80;;;;;;;30.26;41.94;99678.81;4985564;28;20058;-81
2022/08/22 15:05:17;;;;;;;6.10;0.95;;;;;;;30.35;42.26;99672.59;4989043;28;20357;-83
2022/08/22 15:07:53;;;;;;;4.13;0.93;;;;;;;30.37;42.87;99664.88;4994568;28;20090;-81
2022/08/22 15:10:28;;;;;;;2.28;1.20;;;;;;;30.53;41.78;99666.13;4980244;28;20066;-81
2022/08/22 15:12:59;;;;;;;4.45;2.33;;;;;;;30.49;40.63;99659.69;4969853;28;20121;-87
2022/08/22 15:15:31;;;;;;;3.42;1.13;;;;;;;30.71;40.08;99656.88;4985490;28;20030;-84
2022/08/22 15:17:57;;;;;;;4.27;0.97;;;;;;;30.78;40.15;99662.72;4983140;28;20027;-84
2022/08/22 15:20:34;;;;;;;5.00;1.23;;;;;;;30.51;41.53;99662.91;4980870;28;20455;-86
2022/08/22 15:23:19;;;;;;;7.45;1.23;;;;;;;30.40;41.23;99661.50;4981743;28;20049;-86
2022/08/22 15:26:00;;;;;;;5.00;0.90;;;;;;;30.31;39.68;99655.19;4977934;28;20117;-88
2022/08/22 15:28:27;;;;;;;3.40;0.93;;;;;;;30.25;39.40;99654.53;4981198;28;20034;-86
2022/08/22 15:30:55;;;;;;;1.45;0.88;;;;;;;30.40;39.10;99654.16;4977017;28;20090;-85
2022/08/22 15:33:27;;;;;;;7.00;1.23;;;;;;;30.42;39.71;99648.38;4976092;28;20124;-85
2022/08/22 15:36:05;;;;;;;;;;;;;;;30.44;39.84;99649.69;4976017;28;20130;-86
2022/08/22 15:38:54;;;;;;;1.50;0.70;;;;;;;30.50;39.04;99645.69;4980282;28;20320;-88
2022/08/22 15:41:29;;;;;;;5.82;1.15;;;;;;;30.35;39.25;99648.81;4994637;28;20050;-84
2022/08/22 15:44:09;;;;;;;1.75;0.90;;;;;;;30.37;40.19;99653.94;4991207;28;20125;-82
2022/08/22 15:46:43;;;;;;;2.78;0.77;;;;;;;30.30;38.63;99645.38;4980354;28;20034;-89
2022/08/22 15:49:24;;;;;;;593.10;433.40;;;;;;;30.42;39.60;99654.66;4983408;28;20393;-85
2022/08/22 15:52:11;;;;;;;9.60;2.38;;;;;;;30.39;39.95;99655.25;4975934;28;20035;-85
2022/08/22 15:54:37;;;;;;;3.25;1.95;;;;;;;30.35;39.07;99653.47;4958914;28;20042;-88
2022/08/22 15:57:09;;;;;;;389.33;305.73;;;;;;;30.49;39.93;99643.28;4977215;28;20153;-88
2022/08/22 15:59:56;;;;;;;337.10;264.38;;;;;;;30.64;38.63;99656.53;4979019;28;20089;-89
2022/08/22 16:02:55;;;;;;;27.60;20.27;;;;;;;30.71;38.25;99648.66;4960509;28;20515;-84
2022/08/22 16:05:25;;;;;;;6.90;2.72;;;;;;;30.53;38.76;99657.91;4975854;28;20408;-85
2022/08/22 16:08:13;;;;;;;2.83;0.70;;;;;;;30.29;39.64;99646.50;4981116;28;20037;-86
2022/08/22 16:10:48;;;;;;;1.95;1.38;;;;;;;30.29;40.27;99646.50;4984852;28;20106;-86
2022/08/22 16:13:34;;;;;;;8.48;0.82;;;;;;;30.21;40.56;99648.06;4982733;28;20062;-85
2022/08/22 16:16:43;;;;;;;1.48;0.68;;;;;;;30.12;40.47;99650.75;4985756;28;20061;-88
2022/08/22 16:19:25;;;;;;;2.30;0.80;;;;;;;30.13;40.92;99649.63;4992829;28;20034;-89
2022/08/22 16:21:50;;;;;;;5.60;1.40;;;;;;;30.12;40.80;99645.31;4977335;28;20069;-87
2022/08/22 16:24:16;;;;;;;1.60;0.90;;;;;;;30.16;40.22;99646.25;4994760;28;20476;-86
2022/08/22 16:26:42;;;;;;;2.70;0.65;;;;;;;30.26;39.94;99646.00;4994390;28;20060;-81
2022/08/22 16:29:10;;;;;;;2.40;0.80;;;;;;;30.37;39.52;99643.81;4994000;28;20041;-83
2022/08/22 16:31:45;;;;;;;2.08;0.60;;;;;;;30.23;39.79;99646.63;4993866;28;20053;-82
2022/08/22 16:34:16;;;;;;;3.13;0.60;;;;;;;30.25;39.76;99655.34;4994241;28;20026;-83
2022/08/22 16:37:07;;;;;;;1.73;1.08;;;;;;;30.36;40.73;99649.63;4995976;28;20125;-80
2022/08/22 16:39:42;;;;;;;2.00;0.90;;;;;;;30.19;41.18;99651.09;4997080;28;20031;-81
2022/08/22 16:42:13;;;;;;;2.05;0.60;;;;;;;30.03;40.33;99649.88;5011512;28;20027;-82
2022/08/22 16:44:42;;;;;;;4.85;0.85;;;;;;;30.06;41.22;99648.47;4983502;28;20373;-82
2022/08/22 16:47:21;;;;;;;2.25;0.90;;;;;;;30.07;40.35;99645.41;5016399;28;20427;-83
2022/08/22 16:49:49;;;;;;;2.30;0.82;;;;;;;30.22;40.58;99645.03;5016354;28;20052;-83
2022/08/22 16:52:24;;;;;;;2.40;0.80;;;;;;;30.21;40.72;99642.59;5011172;28;20041;-82
2022/08/22 16:55:10;;;;;;;1.13;0.70;;;;;;;30.19;41.57;99642.13;4995557;28;20037;-84
2022/08/22 16:57:50;;;;;;;2.60;0.75;;;;;;;29.96;42.60;99641.31;4994419;28;20030;-83
2022/08/22 17:00:26;;;;;;;3.90;1.13;;;;;;;29.83;42.33;99642.19;4994816;28;20516;-80
2022/08/22 17:02:54;;;;;;;9.15;1.02;;;;;;;29.76;43.04;99644.53;4994393;28;20507;-84
2022/08/22 17:05:40;;;;;;;2.00;0.80;;;;;;;29.80;43.01;99637.31;4993779;28;20439;-81
2022/08/22 17:08:24;;;;;;;2.47;0.80;;;;;;;29.90;43.31;99639.00;4997041;28;20030;-83
2022/08/22 17:11:11;;;;;;;5.65;0.93;;;;;;;29.92;43.53;99643.06;4994077;28;20039;-83
2022/08/22 17:13:52;;;;;;;4.97;1.10;;;;;;;29.77;43.68;99637.94;4960196;28;20046;-84
2022/08/22 17:16:27;;;;;;;2.33;1.10;;;;;;;29.79;44.09;99652.09;4994217;28;20039;-83